sensor_id;sensor_type;location;lat;lon;timestamp;temperature;humidity
27978;DHT22;15314;49.248;6.968;2024-01-10T00:01:17;-1.90;82.10
27978;DHT22;15314;49.248;6.968;2024-01-10T00:02:36;-1.90;82.00
27978;DHT22;15314;49.248;6.968;2024-01-10T00:03:55;-2.00;81.70
27978;DHT22;15314;49.248;6.968;2024-01-10T00:05:12;-2.00;81.70
27978;DHT22;15314;49.248;6.968;2024-01-10T00:06:31;-2.00;81.70
27978;DHT22;15314;49.248;6.968;2024-01-10T00:07:50;-2.00;81.70
27978;DHT22;15314;49.248;6.968;2024-01-10T00:09:09;-2.00;81.90
27978;DHT22;15314;49.248;6.968;2024-01-10T00:10:25;-2.00;81.70
27978;DHT22;15314;49.248;6.968;2024-01-10T00:11:42;-2.10;82.10
27978;DHT22;15314;49.248;6.968;2024-01-10T00:13:01;-2.00;82.30
27978;DHT22;15314;49.248;6.968;2024-01-10T00:14:20;-2.00;82.20
27978;DHT22;15314;49.248;6.968;2024-01-10T00:15:39;-2.00;82.60
27978;DHT22;15314;49.248;6.968;2024-01-10T00:16:58;-2.00;82.00
27978;DHT22;15314;49.248;6.968;2024-01-10T00:18:18;-2.00;82.90
27978;DHT22;15314;49.248;6.968;2024-01-10T00:19:37;-1.90;82.50
27978;DHT22;15314;49.248;6.968;2024-01-10T00:20:56;-1.90;82.50
27978;DHT22;15314;49.248;6.968;2024-01-10T00:22:15;-1.90;82.00
27978;DHT22;15314;49.248;6.968;2024-01-10T00:23:34;-1.90;82.70
27978;DHT22;15314;49.248;6.968;2024-01-10T00:24:53;-1.90;82.50
27978;DHT22;15314;49.248;6.968;2024-01-10T00:26:09;-2.00;82.50
27978;DHT22;15314;49.248;6.968;2024-01-10T00:27:28;-1.90;82.70
27978;DHT22;15314;49.248;6.968;2024-01-10T00:28:47;-1.90;82.40
27978;DHT22;15314;49.248;6.968;2024-01-10T00:30:04;-1.90;82.40
27978;DHT22;15314;49.248;6.968;2024-01-10T00:31:24;-1.90;82.20
27978;DHT22;15314;49.248;6.968;2024-01-10T00:32:43;-1.90;82.80
27978;DHT22;15314;49.248;6.968;2024-01-10T00:34:02;-1.80;82.70
27978;DHT22;15314;49.248;6.968;2024-01-10T00:35:18;-1.80;82.40
27978;DHT22;15314;49.248;6.968;2024-01-10T00:36:37;-1.80;82.10
27978;DHT22;15314;49.248;6.968;2024-01-10T00:37:56;-1.70;83.00
27978;DHT22;15314;49.248;6.968;2024-01-10T00:39:13;-1.80;82.70
27978;DHT22;15314;49.248;6.968;2024-01-10T00:40:32;-1.80;82.50
27978;DHT22;15314;49.248;6.968;2024-01-10T00:41:51;-1.90;82.10
27978;DHT22;15314;49.248;6.968;2024-01-10T00:43:07;-1.90;82.90
27978;DHT22;15314;49.248;6.968;2024-01-10T00:44:23;-1.90;82.60
27978;DHT22;15314;49.248;6.968;2024-01-10T00:45:42;-1.90;83.40
27978;DHT22;15314;49.248;6.968;2024-01-10T00:47:02;-1.80;83.20
27978;DHT22;15314;49.248;6.968;2024-01-10T00:48:18;-1.80;83.20
27978;DHT22;15314;49.248;6.968;2024-01-10T00:49:38;-1.80;82.40
27978;DHT22;15314;49.248;6.968;2024-01-10T00:50:57;-1.70;82.50
27978;DHT22;15314;49.248;6.968;2024-01-10T00:52:16;-1.70;82.50
27978;DHT22;15314;49.248;6.968;2024-01-10T00:53:35;-1.80;82.30
27978;DHT22;15314;49.248;6.968;2024-01-10T00:54:55;-1.80;83.00
27978;DHT22;15314;49.248;6.968;2024-01-10T00:56:14;-1.80;82.90
27978;DHT22;15314;49.248;6.968;2024-01-10T00:57:30;-1.80;82.70
27978;DHT22;15314;49.248;6.968;2024-01-10T00:58:46;-1.80;82.20
27978;DHT22;15314;49.248;6.968;2024-01-10T01:00:02;-1.80;82.40
27978;DHT22;15314;49.248;6.968;2024-01-10T01:01:22;-1.80;82.20
27978;DHT22;15314;49.248;6.968;2024-01-10T01:02:41;-1.80;82.20
27978;DHT22;15314;49.248;6.968;2024-01-10T01:04:00;-1.80;82.50
27978;DHT22;15314;49.248;6.968;2024-01-10T01:05:19;-1.70;82.60
27978;DHT22;15314;49.248;6.968;2024-01-10T01:06:38;-1.60;82.90
27978;DHT22;15314;49.248;6.968;2024-01-10T01:07:57;-1.60;82.70
27978;DHT22;15314;49.248;6.968;2024-01-10T01:09:18;-1.70;83.00
27978;DHT22;15314;49.248;6.968;2024-01-10T01:10:37;-1.70;82.40
27978;DHT22;15314;49.248;6.968;2024-01-10T01:11:56;-1.70;82.00
27978;DHT22;15314;49.248;6.968;2024-01-10T01:13:16;-1.70;82.60
27978;DHT22;15314;49.248;6.968;2024-01-10T01:14:35;-1.70;81.60
27978;DHT22;15314;49.248;6.968;2024-01-10T01:15:55;-1.80;82.60
27978;DHT22;15314;49.248;6.968;2024-01-10T01:17:14;-1.90;82.40
27978;DHT22;15314;49.248;6.968;2024-01-10T01:18:34;-1.90;82.30
27978;DHT22;15314;49.248;6.968;2024-01-10T01:19:54;-1.90;82.30
27978;DHT22;15314;49.248;6.968;2024-01-10T01:21:11;-1.90;82.20
27978;DHT22;15314;49.248;6.968;2024-01-10T01:22:30;-1.80;82.40
27978;DHT22;15314;49.248;6.968;2024-01-10T01:23:50;-1.70;82.10
27978;DHT22;15314;49.248;6.968;2024-01-10T01:25:09;-1.80;81.70
27978;DHT22;15314;49.248;6.968;2024-01-10T01:26:28;-1.80;81.70
27978;DHT22;15314;49.248;6.968;2024-01-10T01:27:48;-1.80;82.30
27978;DHT22;15314;49.248;6.968;2024-01-10T01:29:07;-1.90;81.90
27978;DHT22;15314;49.248;6.968;2024-01-10T01:30:27;-1.90;82.20
27978;DHT22;15314;49.248;6.968;2024-01-10T01:31:43;-1.90;82.30
27978;DHT22;15314;49.248;6.968;2024-01-10T01:33:02;-1.80;83.00
27978;DHT22;15314;49.248;6.968;2024-01-10T01:34:20;-1.90;83.40
27978;DHT22;15314;49.248;6.968;2024-01-10T01:35:39;-1.80;83.00
27978;DHT22;15314;49.248;6.968;2024-01-10T01:36:58;-1.80;83.00
27978;DHT22;15314;49.248;6.968;2024-01-10T01:38:18;-1.80;82.70
27978;DHT22;15314;49.248;6.968;2024-01-10T01:39:37;-1.80;82.70
27978;DHT22;15314;49.248;6.968;2024-01-10T01:40:57;-1.80;82.20
27978;DHT22;15314;49.248;6.968;2024-01-10T01:42:13;-1.80;82.40
27978;DHT22;15314;49.248;6.968;2024-01-10T01:43:29;-1.80;82.60
27978;DHT22;15314;49.248;6.968;2024-01-10T01:44:48;-1.80;82.50
27978;DHT22;15314;49.248;6.968;2024-01-10T01:46:08;-1.80;82.80
27978;DHT22;15314;49.248;6.968;2024-01-10T01:47:27;-1.80;82.90
27978;DHT22;15314;49.248;6.968;2024-01-10T01:48:47;-1.80;82.30
27978;DHT22;15314;49.248;6.968;2024-01-10T01:50:07;-1.80;82.40
27978;DHT22;15314;49.248;6.968;2024-01-10T01:51:28;-1.80;82.50
27978;DHT22;15314;49.248;6.968;2024-01-10T01:52:48;-1.90;82.80
27978;DHT22;15314;49.248;6.968;2024-01-10T01:54:07;-1.90;83.00
27978;DHT22;15314;49.248;6.968;2024-01-10T01:55:30;-1.90;83.10
27978;DHT22;15314;49.248;6.968;2024-01-10T01:56:49;-1.80;83.70
27978;DHT22;15314;49.248;6.968;2024-01-10T01:58:10;-1.90;83.50
27978;DHT22;15314;49.248;6.968;2024-01-10T01:59:30;-1.90;83.10
27978;DHT22;15314;49.248;6.968;2024-01-10T02:00:50;-1.90;82.60
27978;DHT22;15314;49.248;6.968;2024-01-10T02:02:09;-1.90;82.60
27978;DHT22;15314;49.248;6.968;2024-01-10T02:03:31;-1.80;83.60
27978;DHT22;15314;49.248;6.968;2024-01-10T02:04:51;-1.80;83.70
27978;DHT22;15314;49.248;6.968;2024-01-10T02:06:11;-1.80;83.10
27978;DHT22;15314;49.248;6.968;2024-01-10T02:07:31;-1.80;82.70
27978;DHT22;15314;49.248;6.968;2024-01-10T02:08:50;-1.90;82.80
27978;DHT22;15314;49.248;6.968;2024-01-10T02:10:11;-2.00;83.00
27978;DHT22;15314;49.248;6.968;2024-01-10T02:11:27;-2.00;82.90
27978;DHT22;15314;49.248;6.968;2024-01-10T02:12:46;-1.90;83.40
27978;DHT22;15314;49.248;6.968;2024-01-10T02:14:05;-1.90;83.60
27978;DHT22;15314;49.248;6.968;2024-01-10T02:15:25;-1.80;83.40
27978;DHT22;15314;49.248;6.968;2024-01-10T02:16:45;-1.90;82.80
27978;DHT22;15314;49.248;6.968;2024-01-10T02:18:04;-1.80;83.10
27978;DHT22;15314;49.248;6.968;2024-01-10T02:19:26;-1.80;82.90
27978;DHT22;15314;49.248;6.968;2024-01-10T02:20:45;-1.80;83.30
27978;DHT22;15314;49.248;6.968;2024-01-10T02:22:04;-1.80;82.80
27978;DHT22;15314;49.248;6.968;2024-01-10T02:23:23;-1.80;82.50
27978;DHT22;15314;49.248;6.968;2024-01-10T02:24:42;-1.80;83.10
27978;DHT22;15314;49.248;6.968;2024-01-10T02:26:02;-1.80;83.10
27978;DHT22;15314;49.248;6.968;2024-01-10T02:27:21;-1.70;82.60
27978;DHT22;15314;49.248;6.968;2024-01-10T02:28:40;-1.80;83.10
27978;DHT22;15314;49.248;6.968;2024-01-10T02:29:56;-1.80;83.00
27978;DHT22;15314;49.248;6.968;2024-01-10T02:31:16;-1.80;82.80
27978;DHT22;15314;49.248;6.968;2024-01-10T02:32:33;-1.80;83.00
27978;DHT22;15314;49.248;6.968;2024-01-10T02:33:52;-1.90;84.00
27978;DHT22;15314;49.248;6.968;2024-01-10T02:35:11;-2.00;83.50
27978;DHT22;15314;49.248;6.968;2024-01-10T02:36:30;-2.00;83.90
27978;DHT22;15314;49.248;6.968;2024-01-10T02:37:49;-1.90;83.70
27978;DHT22;15314;49.248;6.968;2024-01-10T02:39:07;-2.00;83.30
27978;DHT22;15314;49.248;6.968;2024-01-10T02:40:23;-2.00;83.50
27978;DHT22;15314;49.248;6.968;2024-01-10T02:41:42;-1.90;83.30
27978;DHT22;15314;49.248;6.968;2024-01-10T02:43:01;-1.90;83.40
27978;DHT22;15314;49.248;6.968;2024-01-10T02:44:21;-1.90;83.10
27978;DHT22;15314;49.248;6.968;2024-01-10T02:45:42;-1.90;83.50
27978;DHT22;15314;49.248;6.968;2024-01-10T02:47:01;-2.00;83.10
27978;DHT22;15314;49.248;6.968;2024-01-10T02:48:20;-1.90;83.50
27978;DHT22;15314;49.248;6.968;2024-01-10T02:49:39;-2.00;83.50
27978;DHT22;15314;49.248;6.968;2024-01-10T02:50:58;-2.00;83.70
27978;DHT22;15314;49.248;6.968;2024-01-10T02:52:17;-1.90;83.60
27978;DHT22;15314;49.248;6.968;2024-01-10T02:53:38;-2.00;83.60
27978;DHT22;15314;49.248;6.968;2024-01-10T02:54:58;-2.00;83.50
27978;DHT22;15314;49.248;6.968;2024-01-10T02:56:14;-2.10;83.00
27978;DHT22;15314;49.248;6.968;2024-01-10T02:57:30;-2.00;83.60
27978;DHT22;15314;49.248;6.968;2024-01-10T02:58:49;-2.00;83.60
27978;DHT22;15314;49.248;6.968;2024-01-10T03:00:09;-2.00;83.50
27978;DHT22;15314;49.248;6.968;2024-01-10T03:01:28;-2.00;83.70
27978;DHT22;15314;49.248;6.968;2024-01-10T03:02:47;-1.90;83.70
27978;DHT22;15314;49.248;6.968;2024-01-10T03:04:06;-1.90;84.00
27978;DHT22;15314;49.248;6.968;2024-01-10T03:05:25;-1.90;83.90
27978;DHT22;15314;49.248;6.968;2024-01-10T03:06:44;-1.80;83.60
27978;DHT22;15314;49.248;6.968;2024-01-10T03:08:04;-1.90;83.20
27978;DHT22;15314;49.248;6.968;2024-01-10T03:09:25;-1.80;83.70
27978;DHT22;15314;49.248;6.968;2024-01-10T03:10:44;-1.80;83.60
27978;DHT22;15314;49.248;6.968;2024-01-10T03:12:00;-1.90;83.60
27978;DHT22;15314;49.248;6.968;2024-01-10T03:13:19;-1.90;83.10
27978;DHT22;15314;49.248;6.968;2024-01-10T03:14:38;-1.90;83.20
27978;DHT22;15314;49.248;6.968;2024-01-10T03:15:59;-1.90;83.30
27978;DHT22;15314;49.248;6.968;2024-01-10T03:17:18;-2.00;83.20
27978;DHT22;15314;49.248;6.968;2024-01-10T03:18:37;-2.00;83.40
27978;DHT22;15314;49.248;6.968;2024-01-10T03:19:53;-2.00;83.30
27978;DHT22;15314;49.248;6.968;2024-01-10T03:21:12;-2.00;83.40
27978;DHT22;15314;49.248;6.968;2024-01-10T03:22:31;-1.90;83.70
27978;DHT22;15314;49.248;6.968;2024-01-10T03:23:48;-1.90;83.80
27978;DHT22;15314;49.248;6.968;2024-01-10T03:25:07;-1.90;84.20
27978;DHT22;15314;49.248;6.968;2024-01-10T03:26:27;-1.90;84.30
27978;DHT22;15314;49.248;6.968;2024-01-10T03:27:46;-1.90;84.20
27978;DHT22;15314;49.248;6.968;2024-01-10T03:29:05;-2.00;84.00
27978;DHT22;15314;49.248;6.968;2024-01-10T03:30:24;-2.00;84.10
27978;DHT22;15314;49.248;6.968;2024-01-10T03:31:44;-2.00;83.90
27978;DHT22;15314;49.248;6.968;2024-01-10T03:33:03;-2.00;83.80
27978;DHT22;15314;49.248;6.968;2024-01-10T03:34:22;-2.00;84.30
27978;DHT22;15314;49.248;6.968;2024-01-10T03:35:42;-2.00;84.20
27978;DHT22;15314;49.248;6.968;2024-01-10T03:37:01;-2.10;83.60
27978;DHT22;15314;49.248;6.968;2024-01-10T03:38:20;-2.00;84.20
27978;DHT22;15314;49.248;6.968;2024-01-10T03:39:39;-2.00;84.30
27978;DHT22;15314;49.248;6.968;2024-01-10T03:40:58;-2.00;84.40
27978;DHT22;15314;49.248;6.968;2024-01-10T03:42:14;-2.00;85.00
27978;DHT22;15314;49.248;6.968;2024-01-10T03:43:31;-2.00;84.00
27978;DHT22;15314;49.248;6.968;2024-01-10T03:44:50;-2.10;83.90
27978;DHT22;15314;49.248;6.968;2024-01-10T03:46:10;-2.10;84.00
27978;DHT22;15314;49.248;6.968;2024-01-10T03:47:30;-2.10;84.00
27978;DHT22;15314;49.248;6.968;2024-01-10T03:48:49;-2.00;83.80
27978;DHT22;15314;49.248;6.968;2024-01-10T03:50:05;-2.00;84.10
27978;DHT22;15314;49.248;6.968;2024-01-10T03:51:25;-2.00;83.80
27978;DHT22;15314;49.248;6.968;2024-01-10T03:52:45;-1.90;83.50
27978;DHT22;15314;49.248;6.968;2024-01-10T03:54:04;-1.80;83.50
27978;DHT22;15314;49.248;6.968;2024-01-10T03:55:20;-1.80;84.40
27978;DHT22;15314;49.248;6.968;2024-01-10T03:56:39;-1.80;84.00
27978;DHT22;15314;49.248;6.968;2024-01-10T03:57:56;-1.80;84.00
27978;DHT22;15314;49.248;6.968;2024-01-10T03:59:15;-1.70;84.50
27978;DHT22;15314;49.248;6.968;2024-01-10T04:00:35;-1.70;84.10
27978;DHT22;15314;49.248;6.968;2024-01-10T04:01:51;-1.70;84.20
27978;DHT22;15314;49.248;6.968;2024-01-10T04:03:07;-1.60;84.40
27978;DHT22;15314;49.248;6.968;2024-01-10T04:04:23;-1.60;84.10
27978;DHT22;15314;49.248;6.968;2024-01-10T04:05:41;-1.50;84.40
27978;DHT22;15314;49.248;6.968;2024-01-10T04:07:00;-1.60;83.80
27978;DHT22;15314;49.248;6.968;2024-01-10T04:08:19;-1.60;84.10
27978;DHT22;15314;49.248;6.968;2024-01-10T04:09:38;-1.60;84.60
27978;DHT22;15314;49.248;6.968;2024-01-10T04:10:58;-1.60;84.60
27978;DHT22;15314;49.248;6.968;2024-01-10T04:12:17;-1.80;83.50
27978;DHT22;15314;49.248;6.968;2024-01-10T04:13:36;-1.80;84.60
27978;DHT22;15314;49.248;6.968;2024-01-10T04:14:55;-1.80;84.30
27978;DHT22;15314;49.248;6.968;2024-01-10T04:16:14;-1.80;84.30
27978;DHT22;15314;49.248;6.968;2024-01-10T04:17:33;-1.80;84.20
27978;DHT22;15314;49.248;6.968;2024-01-10T04:18:52;-1.80;84.20
27978;DHT22;15314;49.248;6.968;2024-01-10T04:20:12;-1.90;84.80
27978;DHT22;15314;49.248;6.968;2024-01-10T04:21:31;-2.00;84.50
27978;DHT22;15314;49.248;6.968;2024-01-10T04:22:50;-2.10;84.50
27978;DHT22;15314;49.248;6.968;2024-01-10T04:24:09;-2.10;84.80
27978;DHT22;15314;49.248;6.968;2024-01-10T04:25:28;-2.00;85.00
27978;DHT22;15314;49.248;6.968;2024-01-10T04:26:48;-2.00;84.50
27978;DHT22;15314;49.248;6.968;2024-01-10T04:28:07;-2.00;84.90
27978;DHT22;15314;49.248;6.968;2024-01-10T04:29:23;-2.00;84.60
27978;DHT22;15314;49.248;6.968;2024-01-10T04:30:42;-2.00;84.90
27978;DHT22;15314;49.248;6.968;2024-01-10T04:32:01;-2.00;85.10
27978;DHT22;15314;49.248;6.968;2024-01-10T04:33:20;-2.00;85.30
27978;DHT22;15314;49.248;6.968;2024-01-10T04:34:40;-2.00;85.50
27978;DHT22;15314;49.248;6.968;2024-01-10T04:35:58;-1.90;85.60
27978;DHT22;15314;49.248;6.968;2024-01-10T04:37:15;-2.00;85.20
27978;DHT22;15314;49.248;6.968;2024-01-10T04:38:34;-2.00;84.80
27978;DHT22;15314;49.248;6.968;2024-01-10T04:39:50;-2.00;85.30
27978;DHT22;15314;49.248;6.968;2024-01-10T04:41:09;-2.00;85.50
27978;DHT22;15314;49.248;6.968;2024-01-10T04:42:29;-2.00;85.90
27978;DHT22;15314;49.248;6.968;2024-01-10T04:43:45;-2.00;85.80
27978;DHT22;15314;49.248;6.968;2024-01-10T04:45:05;-1.90;85.60
27978;DHT22;15314;49.248;6.968;2024-01-10T04:46:23;-1.90;85.80
27978;DHT22;15314;49.248;6.968;2024-01-10T04:47:42;-1.90;85.50
27978;DHT22;15314;49.248;6.968;2024-01-10T04:49:03;-1.90;84.40
27978;DHT22;15314;49.248;6.968;2024-01-10T04:50:22;-2.00;84.50
27978;DHT22;15314;49.248;6.968;2024-01-10T04:51:42;-2.10;84.90
27978;DHT22;15314;49.248;6.968;2024-01-10T04:53:01;-2.10;85.20
27978;DHT22;15314;49.248;6.968;2024-01-10T04:54:21;-2.20;84.90
27978;DHT22;15314;49.248;6.968;2024-01-10T04:55:40;-2.20;85.60
27978;DHT22;15314;49.248;6.968;2024-01-10T04:56:59;-2.30;85.60
27978;DHT22;15314;49.248;6.968;2024-01-10T04:58:18;-2.20;86.30
27978;DHT22;15314;49.248;6.968;2024-01-10T04:59:34;-2.30;85.70
27978;DHT22;15314;49.248;6.968;2024-01-10T05:00:53;-2.30;85.30
27978;DHT22;15314;49.248;6.968;2024-01-10T05:02:09;-2.30;85.30
27978;DHT22;15314;49.248;6.968;2024-01-10T05:03:29;-2.30;85.40
27978;DHT22;15314;49.248;6.968;2024-01-10T05:04:49;-2.40;85.20
27978;DHT22;15314;49.248;6.968;2024-01-10T05:06:08;-2.40;85.20
27978;DHT22;15314;49.248;6.968;2024-01-10T05:07:27;-2.40;85.40
27978;DHT22;15314;49.248;6.968;2024-01-10T05:08:46;-2.40;85.60
27978;DHT22;15314;49.248;6.968;2024-01-10T05:10:02;-2.40;85.20
27978;DHT22;15314;49.248;6.968;2024-01-10T05:11:21;-2.40;85.30
27978;DHT22;15314;49.248;6.968;2024-01-10T05:12:40;-2.50;85.30
27978;DHT22;15314;49.248;6.968;2024-01-10T05:13:59;-2.50;86.00
27978;DHT22;15314;49.248;6.968;2024-01-10T05:15:16;-2.40;85.80
27978;DHT22;15314;49.248;6.968;2024-01-10T05:16:35;-2.50;85.30
27978;DHT22;15314;49.248;6.968;2024-01-10T05:17:54;-2.40;85.40
27978;DHT22;15314;49.248;6.968;2024-01-10T05:19:13;-2.40;85.50
27978;DHT22;15314;49.248;6.968;2024-01-10T05:20:33;-2.30;86.60
27978;DHT22;15314;49.248;6.968;2024-01-10T05:21:49;-2.30;86.20
27978;DHT22;15314;49.248;6.968;2024-01-10T05:23:08;-2.40;85.60
27978;DHT22;15314;49.248;6.968;2024-01-10T05:24:24;-2.40;86.80
27978;DHT22;15314;49.248;6.968;2024-01-10T05:25:40;-2.50;85.80
27978;DHT22;15314;49.248;6.968;2024-01-10T05:27:00;-2.50;85.60
27978;DHT22;15314;49.248;6.968;2024-01-10T05:28:18;-2.50;86.40
27978;DHT22;15314;49.248;6.968;2024-01-10T05:29:34;-2.50;86.10
27978;DHT22;15314;49.248;6.968;2024-01-10T05:30:50;-2.60;85.70
27978;DHT22;15314;49.248;6.968;2024-01-10T05:32:09;-2.60;85.70
27978;DHT22;15314;49.248;6.968;2024-01-10T05:33:26;-2.70;86.00
27978;DHT22;15314;49.248;6.968;2024-01-10T05:34:45;-2.70;86.30
27978;DHT22;15314;49.248;6.968;2024-01-10T05:36:05;-2.70;86.60
27978;DHT22;15314;49.248;6.968;2024-01-10T05:37:24;-2.80;86.60
27978;DHT22;15314;49.248;6.968;2024-01-10T05:38:43;-2.80;86.90
27978;DHT22;15314;49.248;6.968;2024-01-10T05:40:03;-2.70;87.00
27978;DHT22;15314;49.248;6.968;2024-01-10T05:41:21;-2.70;87.80
27978;DHT22;15314;49.248;6.968;2024-01-10T05:42:40;-2.70;86.90
27978;DHT22;15314;49.248;6.968;2024-01-10T05:43:59;-2.70;86.40
27978;DHT22;15314;49.248;6.968;2024-01-10T05:45:18;-2.60;87.10
27978;DHT22;15314;49.248;6.968;2024-01-10T05:46:37;-2.60;87.00
27978;DHT22;15314;49.248;6.968;2024-01-10T05:47:56;-2.50;86.40
27978;DHT22;15314;49.248;6.968;2024-01-10T05:49:16;-2.50;86.20
27978;DHT22;15314;49.248;6.968;2024-01-10T05:50:35;-2.40;86.30
27978;DHT22;15314;49.248;6.968;2024-01-10T05:51:54;-2.40;86.50
27978;DHT22;15314;49.248;6.968;2024-01-10T05:53:13;-2.40;87.10
27978;DHT22;15314;49.248;6.968;2024-01-10T05:54:36;-2.40;86.50
27978;DHT22;15314;49.248;6.968;2024-01-10T05:55:55;-2.40;86.50
27978;DHT22;15314;49.248;6.968;2024-01-10T05:57:14;-2.30;86.90
27978;DHT22;15314;49.248;6.968;2024-01-10T05:58:33;-2.30;86.60
27978;DHT22;15314;49.248;6.968;2024-01-10T05:59:52;-2.30;86.40
27978;DHT22;15314;49.248;6.968;2024-01-10T06:01:14;-2.30;86.80
27978;DHT22;15314;49.248;6.968;2024-01-10T06:02:39;-2.30;86.40
27978;DHT22;15314;49.248;6.968;2024-01-10T06:03:58;-2.30;86.70
27978;DHT22;15314;49.248;6.968;2024-01-10T06:05:14;-2.30;86.30
27978;DHT22;15314;49.248;6.968;2024-01-10T06:06:34;-2.20;86.10
27978;DHT22;15314;49.248;6.968;2024-01-10T06:07:53;-2.30;86.40
27978;DHT22;15314;49.248;6.968;2024-01-10T06:09:12;-2.30;86.00
27978;DHT22;15314;49.248;6.968;2024-01-10T06:10:28;-2.40;86.40
27978;DHT22;15314;49.248;6.968;2024-01-10T06:11:48;-2.40;86.50
27978;DHT22;15314;49.248;6.968;2024-01-10T06:13:07;-2.40;86.10
27978;DHT22;15314;49.248;6.968;2024-01-10T06:14:26;-2.50;86.20
27978;DHT22;15314;49.248;6.968;2024-01-10T06:15:46;-2.40;86.50
27978;DHT22;15314;49.248;6.968;2024-01-10T06:17:05;-2.40;86.00
27978;DHT22;15314;49.248;6.968;2024-01-10T06:18:25;-2.40;86.40
27978;DHT22;15314;49.248;6.968;2024-01-10T06:19:44;-2.30;86.30
27978;DHT22;15314;49.248;6.968;2024-01-10T06:21:03;-2.40;86.30
27978;DHT22;15314;49.248;6.968;2024-01-10T06:22:23;-2.30;86.50
27978;DHT22;15314;49.248;6.968;2024-01-10T06:23:43;-2.30;86.40
27978;DHT22;15314;49.248;6.968;2024-01-10T06:25:03;-2.30;86.20
27978;DHT22;15314;49.248;6.968;2024-01-10T06:26:23;-2.30;86.20
27978;DHT22;15314;49.248;6.968;2024-01-10T06:27:41;-2.30;86.60
27978;DHT22;15314;49.248;6.968;2024-01-10T06:29:00;-2.30;86.50
27978;DHT22;15314;49.248;6.968;2024-01-10T06:30:19;-2.40;85.90
27978;DHT22;15314;49.248;6.968;2024-01-10T06:31:39;-2.30;86.20
27978;DHT22;15314;49.248;6.968;2024-01-10T06:32:58;-2.40;86.20
27978;DHT22;15314;49.248;6.968;2024-01-10T06:34:18;-2.40;86.10
27978;DHT22;15314;49.248;6.968;2024-01-10T06:35:37;-2.40;86.10
27978;DHT22;15314;49.248;6.968;2024-01-10T06:36:56;-2.50;86.60
27978;DHT22;15314;49.248;6.968;2024-01-10T06:38:16;-2.50;87.20
27978;DHT22;15314;49.248;6.968;2024-01-10T06:39:36;-2.50;86.70
27978;DHT22;15314;49.248;6.968;2024-01-10T06:40:55;-2.40;86.70
27978;DHT22;15314;49.248;6.968;2024-01-10T06:42:14;-2.30;86.80
27978;DHT22;15314;49.248;6.968;2024-01-10T06:43:33;-2.30;86.50
27978;DHT22;15314;49.248;6.968;2024-01-10T06:44:53;-2.30;86.30
27978;DHT22;15314;49.248;6.968;2024-01-10T06:46:13;-2.20;86.30
27978;DHT22;15314;49.248;6.968;2024-01-10T06:47:32;-2.20;86.90
27978;DHT22;15314;49.248;6.968;2024-01-10T06:48:53;-2.10;87.10
27978;DHT22;15314;49.248;6.968;2024-01-10T06:50:12;-2.20;86.10
27978;DHT22;15314;49.248;6.968;2024-01-10T06:51:31;-2.20;86.30
27978;DHT22;15314;49.248;6.968;2024-01-10T06:52:51;-2.10;86.90
27978;DHT22;15314;49.248;6.968;2024-01-10T06:54:10;-2.20;86.80
27978;DHT22;15314;49.248;6.968;2024-01-10T06:55:29;-2.10;86.90
27978;DHT22;15314;49.248;6.968;2024-01-10T06:56:49;-2.10;86.20
27978;DHT22;15314;49.248;6.968;2024-01-10T06:58:07;-2.00;86.40
27978;DHT22;15314;49.248;6.968;2024-01-10T06:59:26;-2.00;87.30
27978;DHT22;15314;49.248;6.968;2024-01-10T07:00:42;-2.00;86.30
27978;DHT22;15314;49.248;6.968;2024-01-10T07:02:01;-2.00;88.10
27978;DHT22;15314;49.248;6.968;2024-01-10T07:03:20;-1.90;88.00
27978;DHT22;15314;49.248;6.968;2024-01-10T07:04:39;-1.90;86.90
27978;DHT22;15314;49.248;6.968;2024-01-10T07:05:58;-1.90;87.20
27978;DHT22;15314;49.248;6.968;2024-01-10T07:07:17;-1.90;86.10
27978;DHT22;15314;49.248;6.968;2024-01-10T07:08:33;-2.00;86.20
27978;DHT22;15314;49.248;6.968;2024-01-10T07:09:52;-2.00;86.90
27978;DHT22;15314;49.248;6.968;2024-01-10T07:11:12;-2.10;87.50
27978;DHT22;15314;49.248;6.968;2024-01-10T07:12:32;-2.20;86.60
27978;DHT22;15314;49.248;6.968;2024-01-10T07:13:51;-2.10;87.70
27978;DHT22;15314;49.248;6.968;2024-01-10T07:15:08;-2.20;86.90
27978;DHT22;15314;49.248;6.968;2024-01-10T07:16:27;-2.20;86.80
27978;DHT22;15314;49.248;6.968;2024-01-10T07:17:47;-2.20;87.00
27978;DHT22;15314;49.248;6.968;2024-01-10T07:19:10;-2.30;86.80
27978;DHT22;15314;49.248;6.968;2024-01-10T07:20:32;-2.30;86.60
27978;DHT22;15314;49.248;6.968;2024-01-10T07:21:51;-2.20;87.10
27978;DHT22;15314;49.248;6.968;2024-01-10T07:23:13;-2.20;86.90
27978;DHT22;15314;49.248;6.968;2024-01-10T07:24:32;-2.30;86.30
27978;DHT22;15314;49.248;6.968;2024-01-10T07:25:51;-2.30;88.50
27978;DHT22;15314;49.248;6.968;2024-01-10T07:27:10;-2.30;88.40
27978;DHT22;15314;49.248;6.968;2024-01-10T07:28:31;-2.30;87.40
27978;DHT22;15314;49.248;6.968;2024-01-10T07:29:51;-2.30;87.50
27978;DHT22;15314;49.248;6.968;2024-01-10T07:31:11;-2.20;87.50
27978;DHT22;15314;49.248;6.968;2024-01-10T07:32:28;-2.20;87.20
27978;DHT22;15314;49.248;6.968;2024-01-10T07:33:47;-2.30;87.00
27978;DHT22;15314;49.248;6.968;2024-01-10T07:35:06;-2.20;87.60
27978;DHT22;15314;49.248;6.968;2024-01-10T07:36:28;-2.20;87.00
27978;DHT22;15314;49.248;6.968;2024-01-10T07:37:49;-2.10;87.40
27978;DHT22;15314;49.248;6.968;2024-01-10T07:39:08;-2.20;86.70
27978;DHT22;15314;49.248;6.968;2024-01-10T07:40:27;-2.10;87.00
27978;DHT22;15314;49.248;6.968;2024-01-10T07:41:46;-2.10;86.70
27978;DHT22;15314;49.248;6.968;2024-01-10T07:43:06;-2.10;86.80
27978;DHT22;15314;49.248;6.968;2024-01-10T07:44:25;-2.10;86.80
27978;DHT22;15314;49.248;6.968;2024-01-10T07:45:45;-2.00;87.20
27978;DHT22;15314;49.248;6.968;2024-01-10T07:47:04;-2.00;86.90
27978;DHT22;15314;49.248;6.968;2024-01-10T07:48:23;-1.90;86.70
27978;DHT22;15314;49.248;6.968;2024-01-10T07:49:43;-1.90;86.80
27978;DHT22;15314;49.248;6.968;2024-01-10T07:51:02;-1.90;86.30
27978;DHT22;15314;49.248;6.968;2024-01-10T07:52:23;-1.90;86.20
27978;DHT22;15314;49.248;6.968;2024-01-10T07:53:42;-1.80;86.80
27978;DHT22;15314;49.248;6.968;2024-01-10T07:55:02;-1.80;86.00
27978;DHT22;15314;49.248;6.968;2024-01-10T07:56:23;-1.70;85.70
27978;DHT22;15314;49.248;6.968;2024-01-10T07:57:43;-1.70;85.40
27978;DHT22;15314;49.248;6.968;2024-01-10T07:59:02;-1.70;85.30
27978;DHT22;15314;49.248;6.968;2024-01-10T08:00:21;-1.70;85.60
27978;DHT22;15314;49.248;6.968;2024-01-10T08:01:44;-1.50;86.00
27978;DHT22;15314;49.248;6.968;2024-01-10T08:03:13;-1.50;85.50
27978;DHT22;15314;49.248;6.968;2024-01-10T08:04:32;-1.30;85.70
27978;DHT22;15314;49.248;6.968;2024-01-10T08:05:51;-1.40;84.80
27978;DHT22;15314;49.248;6.968;2024-01-10T08:07:10;-1.30;84.70
27978;DHT22;15314;49.248;6.968;2024-01-10T08:08:26;-1.10;85.10
27978;DHT22;15314;49.248;6.968;2024-01-10T08:09:45;-1.10;85.10
27978;DHT22;15314;49.248;6.968;2024-01-10T08:11:04;-1.00;84.90
27978;DHT22;15314;49.248;6.968;2024-01-10T08:12:24;-0.90;84.80
27978;DHT22;15314;49.248;6.968;2024-01-10T08:13:43;-0.90;84.40
27978;DHT22;15314;49.248;6.968;2024-01-10T08:15:05;-0.90;84.20
27978;DHT22;15314;49.248;6.968;2024-01-10T08:16:24;-0.90;83.90
27978;DHT22;15314;49.248;6.968;2024-01-10T08:17:43;-0.90;84.20
27978;DHT22;15314;49.248;6.968;2024-01-10T08:19:03;-1.00;84.30